sensor_id;sensor_type;location;lat;lon;timestamp;P1;durP1;ratioP1;P2;durP2;ratioP2
52272;SDS011;38227;50.942;4.016;2022-12-26T00:02:22;19.40;;;13.98;;
52272;SDS011;38227;50.942;4.016;2022-12-26T00:04:52;17.77;;;12.35;;
52272;SDS011;38227;50.942;4.016;2022-12-26T00:07:23;16.48;;;12.02;;
52272;SDS011;38227;50.942;4.016;2022-12-26T00:09:52;16.80;;;12.10;;
52272;SDS011;38227;50.942;4.016;2022-12-26T00:12:23;17.85;;;11.43;;
52272;SDS011;38227;50.942;4.016;2022-12-26T00:14:52;16.17;;;11.82;;
52272;SDS011;38227;50.942;4.016;2022-12-26T00:17:22;14.85;;;11.27;;
52272;SDS011;38227;50.942;4.016;2022-12-26T00:19:52;15.20;;;11.63;;
52272;SDS011;38227;50.942;4.016;2022-12-26T00:22:28;16.05;;;12.15;;
52272;SDS011;38227;50.942;4.016;2022-12-26T00:24:59;16.70;;;12.48;;
52272;SDS011;38227;50.942;4.016;2022-12-26T00:27:31;16.80;;;13.13;;
52272;SDS011;38227;50.942;4.016;2022-12-26T00:30:00;19.55;;;13.62;;
52272;SDS011;38227;50.942;4.016;2022-12-26T00:32:33;19.12;;;13.30;;
52272;SDS011;38227;50.942;4.016;2022-12-26T00:35:02;18.10;;;12.95;;
52272;SDS011;38227;50.942;4.016;2022-12-26T00:37:32;18.48;;;12.98;;
52272;SDS011;38227;50.942;4.016;2022-12-26T00:40:02;15.60;;;12.20;;
52272;SDS011;38227;50.942;4.016;2022-12-26T00:42:34;17.15;;;12.77;;
52272;SDS011;38227;50.942;4.016;2022-12-26T00:45:05;17.70;;;12.15;;
52272;SDS011;38227;50.942;4.016;2022-12-26T00:47:39;14.32;;;11.35;;
52272;SDS011;38227;50.942;4.016;2022-12-26T00:50:13;14.10;;;11.60;;
52272;SDS011;38227;50.942;4.016;2022-12-26T00:52:44;14.38;;;11.57;;
52272;SDS011;38227;50.942;4.016;2022-12-26T00:55:31;14.75;;;11.60;;
52272;SDS011;38227;50.942;4.016;2022-12-26T00:58:03;13.52;;;10.85;;
52272;SDS011;38227;50.942;4.016;2022-12-26T01:00:37;12.60;;;10.80;;
52272;SDS011;38227;50.942;4.016;2022-12-26T01:03:08;12.07;;;10.07;;
52272;SDS011;38227;50.942;4.016;2022-12-26T01:05:45;12.85;;;9.35;;
52272;SDS011;38227;50.942;4.016;2022-12-26T01:08:18;12.82;;;9.60;;
52272;SDS011;38227;50.942;4.016;2022-12-26T01:11:01;11.43;;;9.10;;
52272;SDS011;38227;50.942;4.016;2022-12-26T01:13:40;10.88;;;8.98;;
52272;SDS011;38227;50.942;4.016;2022-12-26T01:16:11;12.07;;;9.50;;
52272;SDS011;38227;50.942;4.016;2022-12-26T01:18:43;9.45;;;8.02;;
52272;SDS011;38227;50.942;4.016;2022-12-26T01:21:22;10.20;;;7.55;;
52272;SDS011;38227;50.942;4.016;2022-12-26T01:23:55;8.60;;;7.68;;
52272;SDS011;38227;50.942;4.016;2022-12-26T01:26:35;9.40;;;7.60;;
52272;SDS011;38227;50.942;4.016;2022-12-26T01:29:08;11.85;;;7.55;;
52272;SDS011;38227;50.942;4.016;2022-12-26T01:31:49;9.88;;;7.35;;
52272;SDS011;38227;50.942;4.016;2022-12-26T01:34:24;8.40;;;7.37;;
52272;SDS011;38227;50.942;4.016;2022-12-26T01:37:03;10.52;;;7.30;;
52272;SDS011;38227;50.942;4.016;2022-12-26T01:39:36;10.10;;;7.30;;
52272;SDS011;38227;50.942;4.016;2022-12-26T01:42:20;9.73;;;7.53;;
52272;SDS011;38227;50.942;4.016;2022-12-26T01:51:01;11.15;;;7.30;;
52272;SDS011;38227;50.942;4.016;2022-12-26T01:53:44;9.70;;;7.47;;
52272;SDS011;38227;50.942;4.016;2022-12-26T01:56:17;9.52;;;7.62;;
52272;SDS011;38227;50.942;4.016;2022-12-26T01:58:49;8.85;;;7.07;;
52272;SDS011;38227;50.942;4.016;2022-12-26T02:01:21;9.00;;;6.97;;
52272;SDS011;38227;50.942;4.016;2022-12-26T02:03:55;7.93;;;7.12;;
52272;SDS011;38227;50.942;4.016;2022-12-26T02:06:42;11.73;;;8.00;;
52272;SDS011;38227;50.942;4.016;2022-12-26T02:09:10;9.70;;;7.68;;
52272;SDS011;38227;50.942;4.016;2022-12-26T02:11:42;10.80;;;7.85;;
52272;SDS011;38227;50.942;4.016;2022-12-26T02:14:14;11.02;;;7.65;;
52272;SDS011;38227;50.942;4.016;2022-12-26T02:16:42;9.55;;;7.50;;
52272;SDS011;38227;50.942;4.016;2022-12-26T02:19:13;9.43;;;6.97;;
52272;SDS011;38227;50.942;4.016;2022-12-26T02:42:23;9.23;;;6.93;;
52272;SDS011;38227;50.942;4.016;2022-12-26T02:48:51;9.90;;;7.93;;
52272;SDS011;38227;50.942;4.016;2022-12-26T02:58:30;12.37;;;10.02;;
52272;SDS011;38227;50.942;4.016;2022-12-26T03:01:37;12.73;;;9.88;;
52272;SDS011;38227;50.942;4.016;2022-12-26T03:04:30;18.05;;;12.02;;
52272;SDS011;38227;50.942;4.016;2022-12-26T03:07:19;20.62;;;14.73;;
52272;SDS011;38227;50.942;4.016;2022-12-26T03:10:21;24.65;;;15.68;;
52272;SDS011;38227;50.942;4.016;2022-12-26T03:13:13;24.20;;;14.63;;
52272;SDS011;38227;50.942;4.016;2022-12-26T03:19:02;18.37;;;12.93;;
52272;SDS011;38227;50.942;4.016;2022-12-26T03:21:35;16.67;;;10.95;;
52272;SDS011;38227;50.942;4.016;2022-12-26T03:24:10;13.60;;;9.40;;
52272;SDS011;38227;50.942;4.016;2022-12-26T03:26:48;14.23;;;8.82;;
52272;SDS011;38227;50.942;4.016;2022-12-26T03:29:22;11.70;;;8.52;;
52272;SDS011;38227;50.942;4.016;2022-12-26T03:32:29;12.05;;;8.00;;
52272;SDS011;38227;50.942;4.016;2022-12-26T03:35:11;10.57;;;7.97;;
52272;SDS011;38227;50.942;4.016;2022-12-26T03:37:44;10.35;;;8.43;;
52272;SDS011;38227;50.942;4.016;2022-12-26T03:43:45;13.23;;;7.82;;
52272;SDS011;38227;50.942;4.016;2022-12-26T03:47:04;12.00;;;7.30;;
52272;SDS011;38227;50.942;4.016;2022-12-26T03:50:03;11.82;;;7.28;;
52272;SDS011;38227;50.942;4.016;2022-12-26T03:53:11;8.90;;;6.97;;
52272;SDS011;38227;50.942;4.016;2022-12-26T03:56:09;8.80;;;6.70;;
52272;SDS011;38227;50.942;4.016;2022-12-26T03:59:21;10.02;;;7.32;;
52272;SDS011;38227;50.942;4.016;2022-12-26T04:02:33;9.48;;;6.47;;
52272;SDS011;38227;50.942;4.016;2022-12-26T04:05:22;9.95;;;6.43;;
52272;SDS011;38227;50.942;4.016;2022-12-26T04:08:19;8.88;;;6.00;;
52272;SDS011;38227;50.942;4.016;2022-12-26T04:11:11;8.15;;;5.75;;
52272;SDS011;38227;50.942;4.016;2022-12-26T04:14:05;8.73;;;5.62;;
52272;SDS011;38227;50.942;4.016;2022-12-26T04:24:19;7.78;;;5.12;;
52272;SDS011;38227;50.942;4.016;2022-12-26T04:27:07;8.00;;;6.00;;
52272;SDS011;38227;50.942;4.016;2022-12-26T04:29:57;9.40;;;6.00;;
52272;SDS011;38227;50.942;4.016;2022-12-26T04:32:46;9.75;;;5.82;;
52272;SDS011;38227;50.942;4.016;2022-12-26T04:38:53;9.52;;;5.80;;
52272;SDS011;38227;50.942;4.016;2022-12-26T04:41:45;10.50;;;6.32;;
52272;SDS011;38227;50.942;4.016;2022-12-26T04:44:33;8.52;;;5.68;;
52272;SDS011;38227;50.942;4.016;2022-12-26T04:47:07;8.25;;;5.35;;
52272;SDS011;38227;50.942;4.016;2022-12-26T04:49:41;10.05;;;5.28;;
52272;SDS011;38227;50.942;4.016;2022-12-26T04:52:28;9.82;;;5.10;;
52272;SDS011;38227;50.942;4.016;2022-12-26T04:55:16;7.43;;;4.70;;
52272;SDS011;38227;50.942;4.016;2022-12-26T04:57:59;9.68;;;4.50;;
52272;SDS011;38227;50.942;4.016;2022-12-26T05:00:31;7.90;;;4.50;;
52272;SDS011;38227;50.942;4.016;2022-12-26T05:03:12;9.63;;;4.93;;
52272;SDS011;38227;50.942;4.016;2022-12-26T05:05:58;7.93;;;4.20;;
52272;SDS011;38227;50.942;4.016;2022-12-26T05:08:45;7.45;;;4.22;;
52272;SDS011;38227;50.942;4.016;2022-12-26T05:11:32;6.45;;;3.97;;
52272;SDS011;38227;50.942;4.016;2022-12-26T05:14:10;6.53;;;3.90;;
52272;SDS011;38227;50.942;4.016;2022-12-26T05:16:47;6.18;;;3.90;;
52272;SDS011;38227;50.942;4.016;2022-12-26T05:19:35;6.70;;;3.67;;
52272;SDS011;38227;50.942;4.016;2022-12-26T05:22:24;8.95;;;3.90;;
52272;SDS011;38227;50.942;4.016;2022-12-26T05:25:16;6.40;;;3.40;;
52272;SDS011;38227;50.942;4.016;2022-12-26T05:28:03;5.25;;;3.22;;
52272;SDS011;38227;50.942;4.016;2022-12-26T05:30:52;6.53;;;3.30;;
52272;SDS011;38227;50.942;4.016;2022-12-26T05:33:27;8.52;;;3.58;;
52272;SDS011;38227;50.942;4.016;2022-12-26T05:36:13;7.05;;;3.45;;
52272;SDS011;38227;50.942;4.016;2022-12-26T05:38:46;7.97;;;4.00;;
52272;SDS011;38227;50.942;4.016;2022-12-26T05:41:23;10.38;;;4.07;;
52272;SDS011;38227;50.942;4.016;2022-12-26T05:43:55;9.52;;;4.00;;
52272;SDS011;38227;50.942;4.016;2022-12-26T05:46:42;5.25;;;3.90;;
52272;SDS011;38227;50.942;4.016;2022-12-26T05:49:13;6.78;;;4.05;;
52272;SDS011;38227;50.942;4.016;2022-12-26T05:51:43;10.13;;;4.37;;
52272;SDS011;38227;50.942;4.016;2022-12-26T05:54:15;8.52;;;4.00;;
52272;SDS011;38227;50.942;4.016;2022-12-26T05:56:44;8.68;;;3.62;;
52272;SDS011;38227;50.942;4.016;2022-12-26T05:59:23;8.70;;;3.80;;
52272;SDS011;38227;50.942;4.016;2022-12-26T06:01:55;8.52;;;3.87;;
52272;SDS011;38227;50.942;4.016;2022-12-26T06:04:25;4.70;;;3.65;;
52272;SDS011;38227;50.942;4.016;2022-12-26T06:07:02;8.43;;;3.72;;
52272;SDS011;38227;50.942;4.016;2022-12-26T06:09:31;5.70;;;3.90;;
52272;SDS011;38227;50.942;4.016;2022-12-26T06:12:02;7.57;;;3.67;;
52272;SDS011;38227;50.942;4.016;2022-12-26T06:14:32;4.30;;;3.35;;
52272;SDS011;38227;50.942;4.016;2022-12-26T06:17:01;7.60;;;3.15;;
52272;SDS011;38227;50.942;4.016;2022-12-26T06:19:38;9.52;;;3.08;;
52272;SDS011;38227;50.942;4.016;2022-12-26T06:22:07;9.63;;;3.47;;
52272;SDS011;38227;50.942;4.016;2022-12-26T06:24:37;8.20;;;3.47;;
52272;SDS011;38227;50.942;4.016;2022-12-26T06:27:14;5.25;;;3.00;;
52272;SDS011;38227;50.942;4.016;2022-12-26T06:29:42;7.37;;;3.10;;
52272;SDS011;38227;50.942;4.016;2022-12-26T06:32:12;4.78;;;3.00;;
52272;SDS011;38227;50.942;4.016;2022-12-26T06:34:49;6.97;;;2.97;;
52272;SDS011;38227;50.942;4.016;2022-12-26T06:37:18;7.15;;;3.00;;
52272;SDS011;38227;50.942;4.016;2022-12-26T06:39:49;6.60;;;3.15;;
52272;SDS011;38227;50.942;4.016;2022-12-26T06:42:19;8.45;;;3.87;;
52272;SDS011;38227;50.942;4.016;2022-12-26T06:44:56;6.00;;;3.70;;
52272;SDS011;38227;50.942;4.016;2022-12-26T06:47:25;5.87;;;3.50;;
52272;SDS011;38227;50.942;4.016;2022-12-26T06:49:57;6.75;;;3.25;;
52272;SDS011;38227;50.942;4.016;2022-12-26T06:52:26;5.55;;;3.08;;
52272;SDS011;38227;50.942;4.016;2022-12-26T06:54:57;5.30;;;3.08;;
52272;SDS011;38227;50.942;4.016;2022-12-26T06:57:34;6.12;;;2.80;;
52272;SDS011;38227;50.942;4.016;2022-12-26T07:00:03;8.02;;;2.60;;
52272;SDS011;38227;50.942;4.016;2022-12-26T07:02:38;7.55;;;3.00;;
52272;SDS011;38227;50.942;4.016;2022-12-26T07:05:08;6.50;;;2.42;;
52272;SDS011;38227;50.942;4.016;2022-12-26T07:07:39;5.87;;;2.33;;
52272;SDS011;38227;50.942;4.016;2022-12-26T07:10:08;9.35;;;2.83;;
52272;SDS011;38227;50.942;4.016;2022-12-26T07:12:37;7.18;;;2.20;;
52272;SDS011;38227;50.942;4.016;2022-12-26T07:15:08;4.07;;;2.00;;
52272;SDS011;38227;50.942;4.016;2022-12-26T07:17:38;6.82;;;2.08;;
52272;SDS011;38227;50.942;4.016;2022-12-26T07:20:19;3.33;;;1.90;;
52272;SDS011;38227;50.942;4.016;2022-12-26T07:22:57;6.85;;;1.80;;
52272;SDS011;38227;50.942;4.016;2022-12-26T07:28:09;7.12;;;1.70;;
52272;SDS011;38227;50.942;4.016;2022-12-26T07:30:57;6.12;;;1.67;;
52272;SDS011;38227;50.942;4.016;2022-12-26T07:33:39;10.63;;;1.80;;
52272;SDS011;38227;50.942;4.016;2022-12-26T07:36:12;7.18;;;1.75;;
52272;SDS011;38227;50.942;4.016;2022-12-26T07:38:44;10.30;;;1.90;;
52272;SDS011;38227;50.942;4.016;2022-12-26T07:41:17;5.32;;;1.65;;
52272;SDS011;38227;50.942;4.016;2022-12-26T07:44:10;5.62;;;1.60;;
52272;SDS011;38227;50.942;4.016;2022-12-26T07:46:39;9.65;;;1.60;;
52272;SDS011;38227;50.942;4.016;2022-12-26T07:49:12;5.03;;;1.60;;
52272;SDS011;38227;50.942;4.016;2022-12-26T07:51:51;6.57;;;1.65;;
52272;SDS011;38227;50.942;4.016;2022-12-26T07:54:23;7.35;;;1.60;;
52272;SDS011;38227;50.942;4.016;2022-12-26T07:56:53;8.27;;;1.83;;
52272;SDS011;38227;50.942;4.016;2022-12-26T07:59:26;6.30;;;1.62;;
52272;SDS011;38227;50.942;4.016;2022-12-26T08:01:57;7.68;;;1.92;;
52272;SDS011;38227;50.942;4.016;2022-12-26T08:04:38;6.15;;;2.00;;
52272;SDS011;38227;50.942;4.016;2022-12-26T08:07:09;9.93;;;2.20;;
52272;SDS011;38227;50.942;4.016;2022-12-26T08:09:39;8.55;;;2.05;;
52272;SDS011;38227;50.942;4.016;2022-12-26T08:12:16;12.13;;;2.28;;
52272;SDS011;38227;50.942;4.016;2022-12-26T08:14:48;10.85;;;2.12;;
52272;SDS011;38227;50.942;4.016;2022-12-26T08:17:20;14.38;;;2.60;;
52272;SDS011;38227;50.942;4.016;2022-12-26T08:19:51;8.48;;;1.75;;
52272;SDS011;38227;50.942;4.016;2022-12-26T08:22:29;9.10;;;2.12;;
52272;SDS011;38227;50.942;4.016;2022-12-26T08:25:02;7.70;;;2.08;;
52272;SDS011;38227;50.942;4.016;2022-12-26T08:27:45;8.07;;;2.17;;
52272;SDS011;38227;50.942;4.016;2022-12-26T08:30:23;6.32;;;2.05;;
52272;SDS011;38227;50.942;4.016;2022-12-26T08:32:52;6.28;;;1.70;;
52272;SDS011;38227;50.942;4.016;2022-12-26T08:35:22;11.75;;;1.83;;
52272;SDS011;38227;50.942;4.016;2022-12-26T08:37:52;8.00;;;2.12;;
52272;SDS011;38227;50.942;4.016;2022-12-26T08:40:21;11.43;;;1.90;;
52272;SDS011;38227;50.942;4.016;2022-12-26T08:42:50;9.52;;;1.80;;
52272;SDS011;38227;50.942;4.016;2022-12-26T08:45:19;7.22;;;1.60;;
52272;SDS011;38227;50.942;4.016;2022-12-26T08:47:48;7.43;;;1.60;;
52272;SDS011;38227;50.942;4.016;2022-12-26T08:50:21;11.10;;;1.70;;
52272;SDS011;38227;50.942;4.016;2022-12-26T08:52:59;8.07;;;1.80;;
52272;SDS011;38227;50.942;4.016;2022-12-26T08:55:33;7.03;;;1.62;;
52272;SDS011;38227;50.942;4.016;2022-12-26T08:58:10;9.90;;;2.00;;
52272;SDS011;38227;50.942;4.016;2022-12-26T09:00:42;7.72;;;1.70;;
52272;SDS011;38227;50.942;4.016;2022-12-26T09:03:14;6.07;;;1.52;;
52272;SDS011;38227;50.942;4.016;2022-12-26T09:05:51;6.37;;;1.73;;
52272;SDS011;38227;50.942;4.016;2022-12-26T09:08:22;10.80;;;2.10;;
52272;SDS011;38227;50.942;4.016;2022-12-26T09:10:54;11.32;;;2.15;;
52272;SDS011;38227;50.942;4.016;2022-12-26T09:13:30;11.43;;;2.22;;
52272;SDS011;38227;50.942;4.016;2022-12-26T09:16:19;7.00;;;2.08;;
52272;SDS011;38227;50.942;4.016;2022-12-26T09:18:53;9.02;;;2.12;;
52272;SDS011;38227;50.942;4.016;2022-12-26T09:21:23;12.10;;;2.90;;
52272;SDS011;38227;50.942;4.016;2022-12-26T09:23:58;8.82;;;2.35;;
52272;SDS011;38227;50.942;4.016;2022-12-26T09:26:27;8.38;;;2.22;;
52272;SDS011;38227;50.942;4.016;2022-12-26T09:29:00;6.87;;;2.00;;
52272;SDS011;38227;50.942;4.016;2022-12-26T09:31:29;10.48;;;2.53;;
52272;SDS011;38227;50.942;4.016;2022-12-26T09:34:04;7.03;;;2.10;;
52272;SDS011;38227;50.942;4.016;2022-12-26T09:36:33;8.25;;;2.12;;
52272;SDS011;38227;50.942;4.016;2022-12-26T09:39:05;6.57;;;2.37;;
52272;SDS011;38227;50.942;4.016;2022-12-26T09:50:48;8.23;;;1.85;;
52272;SDS011;38227;50.942;4.016;2022-12-26T09:53:21;10.93;;;2.30;;
52272;SDS011;38227;50.942;4.016;2022-12-26T09:56:01;9.43;;;2.25;;
52272;SDS011;38227;50.942;4.016;2022-12-26T10:01:34;8.32;;;1.83;;
52272;SDS011;38227;50.942;4.016;2022-12-26T10:04:08;6.28;;;1.80;;
52272;SDS011;38227;50.942;4.016;2022-12-26T10:07:05;12.07;;;2.37;;
52272;SDS011;38227;50.942;4.016;2022-12-26T10:09:55;10.27;;;1.80;;
52272;SDS011;38227;50.942;4.016;2022-12-26T10:12:35;5.28;;;1.50;;
52272;SDS011;38227;50.942;4.016;2022-12-26T10:18:50;6.40;;;1.90;;
52272;SDS011;38227;50.942;4.016;2022-12-26T10:24:18;4.68;;;1.05;;
52272;SDS011;38227;50.942;4.016;2022-12-26T10:26:54;8.05;;;1.67;;
52272;SDS011;38227;50.942;4.016;2022-12-26T10:29:38;9.27;;;1.98;;
52272;SDS011;38227;50.942;4.016;2022-12-26T10:32:29;8.35;;;1.52;;
52272;SDS011;38227;50.942;4.016;2022-12-26T10:35:20;4.28;;;1.25;;
52272;SDS011;38227;50.942;4.016;2022-12-26T10:41:23;8.65;;;1.90;;
52272;SDS011;38227;50.942;4.016;2022-12-26T10:43:57;8.48;;;1.75;;
52272;SDS011;38227;50.942;4.016;2022-12-26T10:46:33;12.25;;;2.05;;
52272;SDS011;38227;50.942;4.016;2022-12-26T10:49:27;14.07;;;1.80;;
52272;SDS011;38227;50.942;4.016;2022-12-26T10:51:58;14.23;;;2.00;;
52272;SDS011;38227;50.942;4.016;2022-12-26T10:54:29;8.93;;;2.00;;
52272;SDS011;38227;50.942;4.016;2022-12-26T10:56:59;9.88;;;1.60;;
52272;SDS011;38227;50.942;4.016;2022-12-26T10:59:34;8.05;;;2.20;;
52272;SDS011;38227;50.942;4.016;2022-12-26T11:02:11;11.52;;;2.10;;
52272;SDS011;38227;50.942;4.016;2022-12-26T11:07:50;11.90;;;2.00;;
52272;SDS011;38227;50.942;4.016;2022-12-26T11:10:26;10.35;;;1.85;;
52272;SDS011;38227;50.942;4.016;2022-12-26T11:12:59;11.45;;;1.77;;
52272;SDS011;38227;50.942;4.016;2022-12-26T11:15:34;12.52;;;2.10;;
52272;SDS011;38227;50.942;4.016;2022-12-26T11:18:18;14.45;;;2.40;;
52272;SDS011;38227;50.942;4.016;2022-12-26T11:21:26;8.23;;;1.83;;
52272;SDS011;38227;50.942;4.016;2022-12-26T11:26:58;10.73;;;2.33;;
52272;SDS011;38227;50.942;4.016;2022-12-26T11:29:45;14.90;;;2.37;;
52272;SDS011;38227;50.942;4.016;2022-12-26T11:32:18;15.98;;;2.25;;
52272;SDS011;38227;50.942;4.016;2022-12-26T11:34:47;10.77;;;2.00;;
52272;SDS011;38227;50.942;4.016;2022-12-26T11:37:19;10.32;;;2.12;;
52272;SDS011;38227;50.942;4.016;2022-12-26T11:39:57;10.18;;;2.00;;
52272;SDS011;38227;50.942;4.016;2022-12-26T11:42:56;11.93;;;1.92;;
52272;SDS011;38227;50.942;4.016;2022-12-26T11:45:30;7.35;;;1.60;;
52272;SDS011;38227;50.942;4.016;2022-12-26T11:48:07;10.70;;;1.80;;
52272;SDS011;38227;50.942;4.016;2022-12-26T11:50:51;8.95;;;1.67;;
52272;SDS011;38227;50.942;4.016;2022-12-26T11:53:30;12.32;;;2.15;;
52272;SDS011;38227;50.942;4.016;2022-12-26T11:56:01;10.68;;;2.10;;
52272;SDS011;38227;50.942;4.016;2022-12-26T11:58:35;15.80;;;2.42;;
52272;SDS011;38227;50.942;4.016;2022-12-26T12:01:06;13.45;;;2.20;;
52272;SDS011;38227;50.942;4.016;2022-12-26T12:03:41;14.20;;;2.30;;
52272;SDS011;38227;50.942;4.016;2022-12-26T12:19:31;14.15;;;2.17;;
52272;SDS011;38227;50.942;4.016;2022-12-26T12:25:40;15.15;;;2.03;;
52272;SDS011;38227;50.942;4.016;2022-12-26T12:28:48;13.62;;;2.50;;
52272;SDS011;38227;50.942;4.016;2022-12-26T12:32:06;15.07;;;2.30;;
52272;SDS011;38227;50.942;4.016;2022-12-26T12:41:29;14.23;;;2.47;;
52272;SDS011;38227;50.942;4.016;2022-12-26T12:51:05;14.50;;;2.50;;
52272;SDS011;38227;50.942;4.016;2022-12-26T13:09:19;12.57;;;2.15;;
52272;SDS011;38227;50.942;4.016;2022-12-26T13:12:03;13.32;;;2.35;;
52272;SDS011;38227;50.942;4.016;2022-12-26T13:14:41;13.07;;;2.33;;
52272;SDS011;38227;50.942;4.016;2022-12-26T13:17:20;12.65;;;2.58;;
52272;SDS011;38227;50.942;4.016;2022-12-26T13:23:29;17.20;;;2.55;;
52272;SDS011;38227;50.942;4.016;2022-12-26T13:26:28;11.80;;;2.08;;
52272;SDS011;38227;50.942;4.016;2022-12-26T13:29:24;12.27;;;2.45;;
52272;SDS011;38227;50.942;4.016;2022-12-26T13:38:24;11.93;;;2.30;;
52272;SDS011;38227;50.942;4.016;2022-12-26T13:41:15;13.25;;;2.17;;
52272;SDS011;38227;50.942;4.016;2022-12-26T13:44:04;18.42;;;2.67;;
52272;SDS011;38227;50.942;4.016;2022-12-26T13:47:30;19.35;;;2.72;;
52272;SDS011;38227;50.942;4.016;2022-12-26T13:53:29;12.75;;;1.60;;
52272;SDS011;38227;50.942;4.016;2022-12-26T13:56:01;13.38;;;1.98;;
52272;SDS011;38227;50.942;4.016;2022-12-26T14:02:17;11.85;;;1.70;;
52272;SDS011;38227;50.942;4.016;2022-12-26T14:05:15;11.90;;;1.67;;
52272;SDS011;38227;50.942;4.016;2022-12-26T14:08:29;10.63;;;2.55;;
52272;SDS011;38227;50.942;4.016;2022-12-26T14:14:37;6.62;;;1.60;;
52272;SDS011;38227;50.942;4.016;2022-12-26T14:23:22;11.68;;;2.17;;
52272;SDS011;38227;50.942;4.016;2022-12-26T14:36:02;11.35;;;2.30;;
52272;SDS011;38227;50.942;4.016;2022-12-26T14:39:11;13.15;;;2.10;;
52272;SDS011;38227;50.942;4.016;2022-12-26T14:42:22;13.48;;;2.42;;
52272;SDS011;38227;50.942;4.016;2022-12-26T14:45:36;7.37;;;1.90;;
52272;SDS011;38227;50.942;4.016;2022-12-26T14:54:47;13.75;;;2.10;;
52272;SDS011;38227;50.942;4.016;2022-12-26T15:00:48;12.57;;;2.25;;
52272;SDS011;38227;50.942;4.016;2022-12-26T15:03:25;14.87;;;2.62;;
52272;SDS011;38227;50.942;4.016;2022-12-26T15:06:33;10.70;;;2.37;;
52272;SDS011;38227;50.942;4.016;2022-12-26T15:33:07;17.67;;;4.03;;
52272;SDS011;38227;50.942;4.016;2022-12-26T15:35:58;21.40;;;3.55;;
52272;SDS011;38227;50.942;4.016;2022-12-26T15:39:23;13.95;;;3.33;;
52272;SDS011;38227;50.942;4.016;2022-12-26T16:10:25;16.23;;;4.60;;
52272;SDS011;38227;50.942;4.016;2022-12-26T16:16:11;18.75;;;4.97;;
52272;SDS011;38227;50.942;4.016;2022-12-26T16:19:19;14.93;;;4.90;;
52272;SDS011;38227;50.942;4.016;2022-12-26T16:22:02;16.40;;;4.78;;
52272;SDS011;38227;50.942;4.016;2022-12-26T16:24:51;16.08;;;4.50;;
52272;SDS011;38227;50.942;4.016;2022-12-26T16:27:53;15.00;;;4.87;;
52272;SDS011;38227;50.942;4.016;2022-12-26T16:30:34;20.42;;;4.40;;
52272;SDS011;38227;50.942;4.016;2022-12-26T16:33:03;12.40;;;4.03;;
52272;SDS011;38227;50.942;4.016;2022-12-26T16:35:36;17.98;;;4.60;;
52272;SDS011;38227;50.942;4.016;2022-12-26T16:38:11;12.35;;;3.90;;
52272;SDS011;38227;50.942;4.016;2022-12-26T16:40:44;19.65;;;4.43;;
52272;SDS011;38227;50.942;4.016;2022-12-26T16:43:26;16.60;;;4.57;;
52272;SDS011;38227;50.942;4.016;2022-12-26T16:46:00;17.50;;;5.05;;
52272;SDS011;38227;50.942;4.016;2022-12-26T16:48:32;19.75;;;5.07;;
52272;SDS011;38227;50.942;4.016;2022-12-26T16:51:05;16.20;;;4.62;;
52272;SDS011;38227;50.942;4.016;2022-12-26T16:54:12;16.12;;;5.00;;
52272;SDS011;38227;50.942;4.016;2022-12-26T16:57:13;16.58;;;5.00;;
52272;SDS011;38227;50.942;4.016;2022-12-26T17:02:43;20.42;;;5.55;;
52272;SDS011;38227;50.942;4.016;2022-12-26T17:07:55;19.58;;;4.75;;
52272;SDS011;38227;50.942;4.016;2022-12-26T17:10:31;13.82;;;4.50;;
52272;SDS011;38227;50.942;4.016;2022-12-26T17:13:02;16.63;;;4.07;;
52272;SDS011;38227;50.942;4.016;2022-12-26T17:15:39;20.33;;;5.15;;
52272;SDS011;38227;50.942;4.016;2022-12-26T17:18:30;21.98;;;4.62;;
52272;SDS011;38227;50.942;4.016;2022-12-26T17:27:16;14.93;;;4.10;;
52272;SDS011;38227;50.942;4.016;2022-12-26T17:30:00;19.60;;;4.60;;
52272;SDS011;38227;50.942;4.016;2022-12-26T17:32:46;17.23;;;4.75;;
52272;SDS011;38227;50.942;4.016;2022-12-26T17:35:23;25.00;;;5.05;;
52272;SDS011;38227;50.942;4.016;2022-12-26T17:37:56;18.37;;;5.35;;
52272;SDS011;38227;50.942;4.016;2022-12-26T17:40:35;22.55;;;4.72;;
52272;SDS011;38227;50.942;4.016;2022-12-26T17:46:03;22.45;;;4.12;;
52272;SDS011;38227;50.942;4.016;2022-12-26T17:48:34;17.10;;;4.20;;
52272;SDS011;38227;50.942;4.016;2022-12-26T17:51:06;20.30;;;4.28;;
52272;SDS011;38227;50.942;4.016;2022-12-26T17:53:39;19.83;;;4.50;;
52272;SDS011;38227;50.942;4.016;2022-12-26T17:56:14;18.55;;;4.28;;
52272;SDS011;38227;50.942;4.016;2022-12-26T17:58:46;20.60;;;4.32;;
52272;SDS011;38227;50.942;4.016;2022-12-26T18:01:16;17.25;;;4.32;;
52272;SDS011;38227;50.942;4.016;2022-12-26T18:03:54;26.05;;;5.72;;
52272;SDS011;38227;50.942;4.016;2022-12-26T18:06:23;22.05;;;5.87;;
52272;SDS011;38227;50.942;4.016;2022-12-26T18:08:55;14.77;;;4.35;;
52272;SDS011;38227;50.942;4.016;2022-12-26T18:11:24;18.05;;;5.03;;
52272;SDS011;38227;50.942;4.016;2022-12-26T18:13:54;17.40;;;5.90;;
52272;SDS011;38227;50.942;4.016;2022-12-26T18:16:33;21.20;;;5.80;;
52272;SDS011;38227;50.942;4.016;2022-12-26T18:19:06;18.40;;;5.72;;
52272;SDS011;38227;50.942;4.016;2022-12-26T18:21:38;19.45;;;5.60;;
52272;SDS011;38227;50.942;4.016;2022-12-26T18:24:11;16.23;;;5.22;;
52272;SDS011;38227;50.942;4.016;2022-12-26T18:26:50;18.42;;;4.93;;
52272;SDS011;38227;50.942;4.016;2022-12-26T18:29:26;20.73;;;5.37;;
52272;SDS011;38227;50.942;4.016;2022-12-26T18:31:58;25.20;;;5.78;;
52272;SDS011;38227;50.942;4.016;2022-12-26T18:34:33;25.88;;;7.18;;
52272;SDS011;38227;50.942;4.016;2022-12-26T18:37:07;23.42;;;6.25;;
52272;SDS011;38227;50.942;4.016;2022-12-26T18:42:13;18.92;;;5.10;;
52272;SDS011;38227;50.942;4.016;2022-12-26T18:44:53;18.33;;;4.62;;
52272;SDS011;38227;50.942;4.016;2022-12-26T18:47:26;20.00;;;4.97;;
52272;SDS011;38227;50.942;4.016;2022-12-26T18:50:00;19.30;;;4.55;;
52272;SDS011;38227;50.942;4.016;2022-12-26T18:52:38;15.98;;;4.75;;
52272;SDS011;38227;50.942;4.016;2022-12-26T18:55:12;19.90;;;5.12;;
52272;SDS011;38227;50.942;4.016;2022-12-26T18:57:50;17.60;;;4.80;;
52272;SDS011;38227;50.942;4.016;2022-12-26T19:00:23;16.40;;;4.62;;
52272;SDS011;38227;50.942;4.016;2022-12-26T19:02:54;19.25;;;4.72;;
52272;SDS011;38227;50.942;4.016;2022-12-26T19:05:28;17.02;;;5.25;;
52272;SDS011;38227;50.942;4.016;2022-12-26T19:08:03;18.48;;;5.30;;
52272;SDS011;38227;50.942;4.016;2022-12-26T19:10:43;20.62;;;5.05;;
52272;SDS011;38227;50.942;4.016;2022-12-26T19:13:17;16.25;;;4.40;;
52272;SDS011;38227;50.942;4.016;2022-12-26T19:15:56;15.38;;;4.45;;
52272;SDS011;38227;50.942;4.016;2022-12-26T19:18:30;17.80;;;4.82;;
52272;SDS011;38227;50.942;4.016;2022-12-26T19:21:11;12.07;;;4.35;;
52272;SDS011;38227;50.942;4.016;2022-12-26T19:23:46;16.67;;;5.03;;
52272;SDS011;38227;50.942;4.016;2022-12-26T19:26:26;17.77;;;5.40;;
52272;SDS011;38227;50.942;4.016;2022-12-26T19:28:58;15.45;;;5.18;;
52272;SDS011;38227;50.942;4.016;2022-12-26T19:31:32;17.65;;;5.28;;
52272;SDS011;38227;50.942;4.016;2022-12-26T19:34:05;16.83;;;5.07;;
52272;SDS011;38227;50.942;4.016;2022-12-26T19:36:35;15.65;;;5.15;;
52272;SDS011;38227;50.942;4.016;2022-12-26T19:39:08;15.15;;;4.90;;
52272;SDS011;38227;50.942;4.016;2022-12-26T19:41:39;19.73;;;5.03;;
52272;SDS011;38227;50.942;4.016;2022-12-26T19:44:18;16.23;;;4.90;;
52272;SDS011;38227;50.942;4.016;2022-12-26T19:46:50;15.75;;;4.43;;
52272;SDS011;38227;50.942;4.016;2022-12-26T19:49:22;13.85;;;4.45;;
52272;SDS011;38227;50.942;4.016;2022-12-26T19:51:52;22.77;;;5.78;;
52272;SDS011;38227;50.942;4.016;2022-12-26T19:54:24;18.90;;;5.30;;
52272;SDS011;38227;50.942;4.016;2022-12-26T19:56:52;17.65;;;5.37;;